Terminal Aerodrome Forecast
Issued by NWS Cleveland, OH

Home | Current Version | Previous Version | Text Only | Print | Product List | Glossary Off
Versions: 1 2 3 4 5 6 7 8 9 10 11 12 13 14 15 16 17 18 19 20 21 22 23 24 25 26 27 28 29 30 31

000
FTUS41 KCLE 300500
TAFCLE
TAF
KCLE 300521Z 3006/3112 24005KT P6SM -SHRA OVC070
     FM300800 22005KT P6SM BKN100
     FM301500 24008KT P6SM BKN070
     FM301800 23010KT 6SM -SHRA OVC035
      TEMPO 3019/3022 3SM TSRA OVC025CB
     FM310000 23006KT P6SM BKN070=

USA.gov is the U.S. government's official web portal to all federal, state and local government web resources and services.